Accueil
METAR-TAF:

METAR-TAF

Aéroports :

Aéroport international Cassidy

Île Christmas, Kiribati

latitude: 01-59N, longitude: 157-29W, altitude: 3 m

Observation

Le bulletin a été fait il y a 22 minutes, à 20:00 UTC
Vent 7 kt de est
Température 30°C
Humidité 62%
Pression 1010 hPa
Visibilité 10 km ou plus
Nuages épars à une hauteur de 1900 ft

METAR: PLCH 202000Z 10007KT 9999 SCT019 30/22 Q1010

Heure: 10:22 (20:22 UTC)

Prévision

Le bulletin a été fait il y a 3 heures et 13 minutes, à 17:09 UTC
Prévision valable du 20 à 18 UTC au 21 à 18 UTC
Vent 8 kt de est/sud-est
Visibilité 10 km ou plus
Nuages épars à une hauteur de 1800 ft

TAF: PLCH 201709Z 2018/2118 11008KT 9999 SCT018

Observations et prévisions météorologiques de plus de 4000 aéroports (messages METAR et TAF).

Les stations disponibles sont représentées par des disques jaunes et rouges sur la carte.

Passer la souris dessus pour voir le nom de la station.

Cliquer dessus pour voir les observations et prévisions météorologiques.

Pour changer de carte: cliquez sur les boutons verts avec une croix noire pour zoomer, sur le bouton vert avec un tiret pour effectuer un zoom arrière, ou sur les flèches vertes pour les cartes adjacentes.


METAR-TAF: